createdAt,value
2022-12-31T07:23:18.344Z,2.99
2022-12-31T07:24:04.274Z,7.04
2022-12-31T07:25:04.222Z,6.22
2022-12-31T07:26:04.354Z,5.11
2022-12-31T07:27:04.152Z,4.90
2022-12-31T07:28:04.103Z,5.20
2022-12-31T07:29:04.082Z,5.06
2022-12-31T07:30:04.172Z,4.62
2022-12-31T07:31:04.099Z,4.73
2022-12-31T07:32:04.166Z,4.87
2022-12-31T07:33:04.258Z,4.27
2022-12-31T07:34:04.084Z,4.93
2022-12-31T07:35:04.297Z,4.46
2022-12-31T07:36:04.285Z,4.98
2022-12-31T07:37:04.214Z,4.80
2022-12-31T07:38:04.212Z,5.52
2022-12-31T07:39:04.143Z,4.92
2022-12-31T07:40:04.097Z,5.11
2022-12-31T07:41:09.284Z,4.88
2022-12-31T07:42:04.114Z,4.93
2022-12-31T07:43:04.156Z,4.53
2022-12-31T07:44:04.082Z,4.55
2022-12-31T07:45:04.103Z,4.50
2022-12-31T07:46:04.135Z,4.29
2022-12-31T07:47:04.088Z,4.26
2022-12-31T07:48:04.111Z,4.49
2022-12-31T07:49:04.109Z,4.25
2022-12-31T07:50:04.078Z,3.70
2022-12-31T07:51:04.079Z,4.40
2022-12-31T07:52:04.077Z,4.99
2022-12-31T07:53:04.106Z,4.98
2022-12-31T07:54:08.732Z,4.54
2022-12-31T07:55:04.109Z,5.43
2022-12-31T07:56:04.270Z,4.50
2022-12-31T07:57:04.250Z,4.97
2022-12-31T07:58:04.184Z,4.52
2022-12-31T07:59:04.094Z,5.79
2022-12-31T08:00:04.283Z,5.20
2022-12-31T08:01:04.317Z,6.01
2022-12-31T08:02:04.198Z,7.96
2022-12-31T08:03:04.166Z,10.96
2022-12-31T08:04:04.070Z,11.37
2022-12-31T08:05:04.132Z,8.74
2022-12-31T08:06:04.064Z,7.29
2022-12-31T08:07:04.140Z,7.21
2022-12-31T08:08:04.132Z,6.25
2022-12-31T08:09:04.003Z,6.17
2022-12-31T08:10:04.274Z,6.54
2022-12-31T08:11:04.084Z,5.88
2022-12-31T08:12:04.049Z,5.65
2022-12-31T08:13:03.960Z,5.87
2022-12-31T08:14:03.966Z,5.79
2022-12-31T08:15:04.077Z,5.63
2022-12-31T08:16:04.107Z,5.97
2022-12-31T08:17:03.993Z,4.99
2022-12-31T08:18:04.041Z,5.20
2022-12-31T08:19:03.933Z,5.45
2022-12-31T08:20:03.991Z,5.41
2022-12-31T08:21:04.253Z,4.79
2022-12-31T08:22:04.249Z,5.27
2022-12-31T08:23:03.967Z,5.93
2022-12-31T08:24:04.046Z,5.24
2022-12-31T08:25:04.040Z,5.01
2022-12-31T08:26:04.017Z,4.97
2022-12-31T08:27:03.976Z,5.90
2022-12-31T08:28:04.116Z,4.39
2022-12-31T08:29:03.925Z,4.65
2022-12-31T08:30:04.108Z,5.43
2022-12-31T08:31:03.841Z,5.78
2022-12-31T08:32:03.933Z,5.53
2022-12-31T08:33:03.862Z,5.49
2022-12-31T08:34:06.222Z,5.49
2022-12-31T08:35:03.844Z,6.13
2022-12-31T08:36:03.901Z,5.62
2022-12-31T08:37:03.905Z,6.49
2022-12-31T08:38:04.139Z,7.48
2022-12-31T08:39:03.735Z,7.02
2022-12-31T08:40:03.751Z,6.54
2022-12-31T08:41:03.727Z,6.40
2022-12-31T08:42:03.712Z,5.75
2022-12-31T08:43:03.691Z,5.67
2022-12-31T08:44:03.792Z,5.92
2022-12-31T08:45:03.681Z,5.03
2022-12-31T08:46:03.760Z,5.51
2022-12-31T08:47:03.650Z,4.74
2022-12-31T08:48:03.769Z,5.40
2022-12-31T08:49:03.667Z,4.90
2022-12-31T08:50:03.769Z,5.48
2022-12-31T08:51:03.709Z,5.44
2022-12-31T08:52:03.947Z,4.96
2022-12-31T08:53:03.635Z,5.38
2022-12-31T08:54:03.594Z,5.11
2022-12-31T08:55:03.531Z,5.35
2022-12-31T08:56:03.588Z,5.54
2022-12-31T08:57:03.916Z,5.68
2022-12-31T08:58:03.522Z,4.72
2022-12-31T08:59:03.537Z,5.62
2022-12-31T09:00:03.638Z,4.69
2022-12-31T09:01:03.686Z,5.83
2022-12-31T09:02:03.701Z,5.14
2022-12-31T09:03:03.528Z,4.76
2022-12-31T09:04:03.683Z,4.28
2022-12-31T09:05:03.586Z,4.87
2022-12-31T09:06:03.752Z,4.81
2022-12-31T09:07:03.489Z,5.17
2022-12-31T09:08:03.454Z,4.98
2022-12-31T09:09:03.429Z,5.87
2022-12-31T09:10:03.510Z,5.16
2022-12-31T09:11:03.507Z,4.80
2022-12-31T09:12:03.415Z,4.98
2022-12-31T09:13:03.432Z,4.71
2022-12-31T09:14:03.395Z,4.47
2022-12-31T09:15:03.417Z,5.09
2022-12-31T09:16:03.346Z,4.34
2022-12-31T09:17:03.369Z,5.09
2022-12-31T09:18:03.305Z,4.98
2022-12-31T09:19:03.261Z,4.90
2022-12-31T09:20:03.323Z,5.60
2022-12-31T09:21:03.271Z,4.76
2022-12-31T09:22:03.370Z,5.16
2022-12-31T09:23:03.498Z,5.40
2022-12-31T09:24:09.150Z,5.61
2022-12-31T09:25:03.201Z,5.37
2022-12-31T09:26:03.193Z,6.05
2022-12-31T09:27:03.202Z,5.73
2022-12-31T09:28:03.267Z,6.09
2022-12-31T09:29:03.336Z,6.18
2022-12-31T09:30:03.137Z,6.21
2022-12-31T09:31:03.130Z,6.16
2022-12-31T09:32:03.230Z,6.06
2022-12-31T09:33:03.173Z,6.02
2022-12-31T09:34:03.080Z,6.36
2022-12-31T09:35:03.053Z,6.56
2022-12-31T09:36:03.097Z,5.98
2022-12-31T09:37:03.086Z,5.41
2022-12-31T09:38:06.530Z,6.26
2022-12-31T09:39:03.180Z,6.13
2022-12-31T09:40:03.130Z,5.21
2022-12-31T09:41:03.125Z,6.29
2022-12-31T09:42:03.020Z,5.97
2022-12-31T09:43:02.993Z,6.40
2022-12-31T09:44:03.021Z,5.49
2022-12-31T09:45:02.998Z,6.06
2022-12-31T09:46:03.303Z,5.32
2022-12-31T09:47:02.949Z,5.83
2022-12-31T09:48:02.900Z,5.90
2022-12-31T09:49:02.884Z,5.86
2022-12-31T09:50:02.918Z,5.56
2022-12-31T09:51:02.836Z,5.87
2022-12-31T09:52:02.925Z,6.02
2022-12-31T09:53:02.836Z,5.54
2022-12-31T09:54:02.793Z,5.93
2022-12-31T09:55:02.904Z,6.58
2022-12-31T09:56:02.754Z,6.15
2022-12-31T09:57:02.822Z,5.60
2022-12-31T09:58:02.734Z,6.65
2022-12-31T09:59:02.753Z,6.32
2022-12-31T10:00:02.694Z,6.20
2022-12-31T10:01:02.920Z,5.09
2022-12-31T10:02:02.938Z,5.45
2022-12-31T10:03:02.706Z,5.69
2022-12-31T10:04:02.711Z,5.98
2022-12-31T10:05:02.732Z,5.96
2022-12-31T10:06:02.615Z,6.49
2022-12-31T10:07:02.563Z,6.16
2022-12-31T10:08:02.524Z,5.98
2022-12-31T10:09:02.643Z,5.94
2022-12-31T10:10:02.485Z,6.42
2022-12-31T10:11:02.438Z,6.35
2022-12-31T10:12:02.515Z,5.95
2022-12-31T10:13:02.431Z,5.79
2022-12-31T10:14:02.501Z,6.16
2022-12-31T10:15:02.451Z,6.50
2022-12-31T10:16:02.373Z,5.84
2022-12-31T10:17:02.342Z,6.76
2022-12-31T10:18:02.251Z,6.34
2022-12-31T10:19:02.291Z,6.54
2022-12-31T10:20:02.250Z,6.31
2022-12-31T10:21:02.164Z,6.56
2022-12-31T10:22:02.138Z,6.36
2022-12-31T10:23:02.137Z,6.29
2022-12-31T10:24:02.090Z,6.37
2022-12-31T10:25:02.062Z,5.99
2022-12-31T10:26:02.058Z,6.29
2022-12-31T10:27:01.969Z,5.65
2022-12-31T10:28:01.942Z,5.82
2022-12-31T10:29:01.950Z,5.47
2022-12-31T10:30:01.938Z,5.15
2022-12-31T10:31:01.974Z,4.64
2022-12-31T10:32:01.896Z,4.86
2022-12-31T10:33:01.845Z,4.31
2022-12-31T10:34:01.771Z,4.31
2022-12-31T10:35:01.811Z,4.24
2022-12-31T10:36:01.688Z,4.56
2022-12-31T10:37:01.630Z,4.23
2022-12-31T10:38:01.636Z,5.66
2022-12-31T10:39:03.032Z,4.99
2022-12-31T10:40:01.595Z,4.98
2022-12-31T10:41:01.553Z,5.28
2022-12-31T10:42:01.643Z,5.71
2022-12-31T10:43:01.522Z,5.48
2022-12-31T10:44:01.450Z,5.33
2022-12-31T10:45:01.361Z,5.25
2022-12-31T10:46:01.401Z,5.23
2022-12-31T10:47:01.282Z,4.81
2022-12-31T10:48:01.355Z,5.33
2022-12-31T10:49:01.187Z,5.85
2022-12-31T10:50:01.210Z,5.64
2022-12-31T10:51:01.194Z,5.56
2022-12-31T10:52:01.119Z,5.62
2022-12-31T10:53:01.145Z,5.36
2022-12-31T10:54:01.053Z,4.92
2022-12-31T10:55:00.941Z,5.31
2022-12-31T10:56:00.964Z,5.05
2022-12-31T10:57:00.879Z,5.28
2022-12-31T10:58:04.365Z,5.27
2022-12-31T10:59:00.818Z,5.14
2022-12-31T11:00:00.742Z,4.63
2022-12-31T11:01:00.904Z,5.58
2022-12-31T11:02:00.814Z,4.73
2022-12-31T11:03:00.712Z,4.64
2022-12-31T11:04:00.681Z,5.00
2022-12-31T11:05:00.564Z,5.01
2022-12-31T11:06:00.501Z,5.51
2022-12-31T11:07:00.437Z,4.82
2022-12-31T11:08:00.386Z,4.85
2022-12-31T11:09:00.329Z,4.97
2022-12-31T11:10:00.308Z,4.64
2022-12-31T11:11:00.288Z,4.57
2022-12-31T11:12:00.195Z,5.01
2022-12-31T11:13:00.190Z,5.33
2022-12-31T11:14:00.129Z,4.71
2022-12-31T11:15:00.126Z,4.58
2022-12-31T11:16:00.163Z,4.66
2022-12-31T11:17:00.122Z,5.22
2022-12-31T11:18:00.041Z,5.13
2022-12-31T11:18:59.967Z,4.53
2022-12-31T11:19:59.891Z,4.60
2022-12-31T11:20:59.950Z,4.89
2022-12-31T11:21:59.807Z,5.14
2022-12-31T11:22:59.824Z,5.58
2022-12-31T11:23:59.755Z,4.91
2022-12-31T11:24:59.724Z,4.90
2022-12-31T11:25:59.683Z,5.13
2022-12-31T11:26:59.590Z,4.56
2022-12-31T11:27:59.696Z,5.42
2022-12-31T11:28:59.552Z,5.78
2022-12-31T11:29:59.587Z,4.92
2022-12-31T11:30:59.778Z,5.50
2022-12-31T11:31:59.607Z,6.25
2022-12-31T11:32:59.384Z,6.58
2022-12-31T11:33:59.363Z,6.71
2022-12-31T11:34:59.419Z,6.49
2022-12-31T11:35:59.378Z,6.73
2022-12-31T11:36:59.264Z,6.88
2022-12-31T11:37:59.279Z,7.34
2022-12-31T11:38:59.364Z,8.03
2022-12-31T11:39:59.226Z,7.60
2022-12-31T11:40:59.403Z,7.34
2022-12-31T11:41:59.177Z,7.72
2022-12-31T11:42:59.133Z,6.87
2022-12-31T11:43:59.135Z,6.54
2022-12-31T11:44:59.233Z,6.25
2022-12-31T11:45:59.116Z,6.88
2022-12-31T11:46:59.057Z,6.68
2022-12-31T11:48:58.957Z,6.25
2022-12-31T11:49:58.983Z,6.04
2022-12-31T11:50:58.978Z,6.42
2022-12-31T11:51:59.029Z,5.89
2022-12-31T11:52:58.869Z,6.10
2022-12-31T11:53:58.924Z,6.48
2022-12-31T11:54:58.821Z,5.61
2022-12-31T11:55:58.830Z,5.80
2022-12-31T11:56:58.778Z,6.59
2022-12-31T11:57:58.774Z,5.92
2022-12-31T11:58:58.778Z,6.07
2022-12-31T11:59:58.755Z,5.19
2022-12-31T12:00:58.769Z,5.37
2022-12-31T12:01:58.699Z,5.20
2022-12-31T12:02:58.738Z,6.09
2022-12-31T12:03:58.665Z,5.21
2022-12-31T12:04:58.586Z,5.57
2022-12-31T12:05:58.597Z,5.39
2022-12-31T12:06:58.782Z,5.24
2022-12-31T12:07:58.594Z,4.71
2022-12-31T12:08:58.740Z,5.56
2022-12-31T12:09:58.520Z,5.46
2022-12-31T12:10:58.421Z,6.26
2022-12-31T12:11:58.443Z,5.02
2022-12-31T12:12:58.378Z,5.02
2022-12-31T12:13:58.431Z,6.49
2022-12-31T12:14:58.372Z,5.84
2022-12-31T12:15:58.392Z,6.09
2022-12-31T12:17:04.370Z,6.42
2022-12-31T12:17:58.286Z,6.37
2022-12-31T12:18:58.378Z,6.22
2022-12-31T12:19:58.499Z,6.00
2022-12-31T12:20:58.273Z,5.74
2022-12-31T12:21:58.178Z,5.89
2022-12-31T12:22:58.208Z,6.14
2022-12-31T12:23:58.191Z,6.86
2022-12-31T12:24:58.244Z,7.21
2022-12-31T12:25:58.254Z,7.10
2022-12-31T12:26:58.076Z,7.30
2022-12-31T12:27:58.158Z,7.21
2022-12-31T12:28:58.025Z,6.62
2022-12-31T12:29:58.071Z,7.81
2022-12-31T12:30:58.031Z,7.94
2022-12-31T12:31:57.932Z,8.44
2022-12-31T12:32:57.979Z,8.97
2022-12-31T12:33:57.799Z,8.84
2022-12-31T12:34:57.816Z,8.31
2022-12-31T12:35:57.764Z,7.98
2022-12-31T12:36:57.777Z,7.60
2022-12-31T12:37:57.727Z,7.63
2022-12-31T12:38:57.650Z,7.15
2022-12-31T12:39:57.705Z,7.04
2022-12-31T12:40:57.651Z,6.85
2022-12-31T12:41:57.615Z,6.52
2022-12-31T12:42:57.547Z,6.53
2022-12-31T12:43:57.530Z,7.70
2022-12-31T12:44:57.442Z,7.79
2022-12-31T12:45:57.442Z,6.51
2022-12-31T12:46:57.484Z,5.75
2022-12-31T12:47:57.402Z,6.49
2022-12-31T12:48:57.300Z,7.68
2022-12-31T12:49:57.273Z,8.01
2022-12-31T12:50:57.308Z,7.26
2022-12-31T12:51:57.264Z,7.30
2022-12-31T12:52:59.623Z,7.61
2022-12-31T12:53:57.235Z,7.34
2022-12-31T12:54:57.190Z,7.20
2022-12-31T12:55:57.156Z,7.07
2022-12-31T12:56:57.093Z,7.57
2022-12-31T12:57:57.143Z,6.97
2022-12-31T12:58:57.028Z,7.67
2022-12-31T12:59:57.060Z,7.48
2022-12-31T13:00:57.085Z,7.31
2022-12-31T13:01:57.153Z,7.42
2022-12-31T13:02:57.008Z,7.62
2022-12-31T13:04:56.851Z,6.65
2022-12-31T13:05:56.798Z,6.64
2022-12-31T13:06:56.890Z,6.27
2022-12-31T13:07:56.776Z,6.16
2022-12-31T13:08:56.680Z,5.36
2022-12-31T13:09:56.816Z,5.50
2022-12-31T13:10:56.624Z,5.84
2022-12-31T13:11:56.586Z,5.73
2022-12-31T13:13:26.110Z,6.12
2022-12-31T13:13:56.531Z,6.26
2022-12-31T13:14:56.533Z,6.53
2022-12-31T13:15:56.518Z,5.96
2022-12-31T13:16:56.432Z,5.83
2022-12-31T13:18:01.433Z,6.18
2022-12-31T13:18:56.460Z,5.84
2022-12-31T13:19:56.444Z,6.42
2022-12-31T13:20:56.373Z,5.99
2022-12-31T13:21:56.265Z,6.32
2022-12-31T13:22:56.237Z,6.62
2022-12-31T13:23:56.280Z,5.60
2022-12-31T13:24:56.226Z,6.16
2022-12-31T13:25:56.173Z,5.86
2022-12-31T13:26:56.180Z,5.90
2022-12-31T13:27:56.216Z,6.52
2022-12-31T13:28:56.063Z,7.11
2022-12-31T13:29:56.033Z,6.82
2022-12-31T13:30:57.531Z,6.36
2022-12-31T13:31:56.014Z,7.41
2022-12-31T13:32:56.054Z,7.50
2022-12-31T13:33:55.832Z,7.22
2022-12-31T13:34:56.055Z,6.63
2022-12-31T13:35:55.871Z,6.10
2022-12-31T13:36:55.819Z,6.63
2022-12-31T13:38:00.295Z,6.18
2022-12-31T13:38:55.685Z,6.61
2022-12-31T13:39:55.741Z,6.54
2022-12-31T13:40:55.651Z,7.11
2022-12-31T13:41:55.609Z,7.41
2022-12-31T13:42:55.533Z,7.30
2022-12-31T13:43:55.536Z,6.45
2022-12-31T13:44:55.482Z,6.65
2022-12-31T13:45:55.456Z,5.38
2022-12-31T13:46:55.535Z,6.23
2022-12-31T13:47:55.410Z,6.53
2022-12-31T13:48:55.318Z,5.62
2022-12-31T13:49:55.237Z,5.79
2022-12-31T13:50:55.214Z,6.19
2022-12-31T13:51:55.215Z,7.10
2022-12-31T13:52:55.297Z,6.95
2022-12-31T13:53:55.150Z,6.70
2022-12-31T13:54:54.999Z,6.41
2022-12-31T13:55:56.965Z,5.92
2022-12-31T13:56:54.897Z,7.00
2022-12-31T13:57:54.947Z,6.73
2022-12-31T13:58:54.831Z,6.24
2022-12-31T13:59:54.768Z,5.38
2022-12-31T14:00:54.919Z,5.52
2022-12-31T14:01:54.914Z,4.71
2022-12-31T14:02:54.684Z,5.07
2022-12-31T14:03:54.630Z,4.66
2022-12-31T14:04:54.594Z,5.10
2022-12-31T14:05:54.514Z,5.66
2022-12-31T14:06:54.434Z,5.31
2022-12-31T14:07:54.372Z,5.99
2022-12-31T14:08:54.380Z,6.43
2022-12-31T14:09:54.275Z,5.68
2022-12-31T14:10:54.355Z,6.14
2022-12-31T14:11:54.255Z,6.56
2022-12-31T14:12:54.221Z,7.62
2022-12-31T14:13:54.132Z,7.23
2022-12-31T14:14:54.110Z,7.59
2022-12-31T14:15:53.995Z,8.39
2022-12-31T14:16:54.173Z,8.78
2022-12-31T14:17:53.928Z,9.61
2022-12-31T14:18:53.922Z,9.48
2022-12-31T14:19:53.868Z,9.32
2022-12-31T14:20:53.784Z,10.09
2022-12-31T14:21:53.738Z,9.89
2022-12-31T14:22:53.774Z,10.51
2022-12-31T14:23:53.657Z,9.46
2022-12-31T14:24:53.618Z,9.08
2022-12-31T14:25:53.621Z,9.34
2022-12-31T14:26:53.542Z,10.11
2022-12-31T14:27:53.597Z,10.88
2022-12-31T14:28:53.517Z,10.60
2022-12-31T14:29:53.466Z,10.27
2022-12-31T14:30:53.467Z,9.66
2022-12-31T14:31:53.469Z,10.85
2022-12-31T14:32:53.319Z,9.63
2022-12-31T14:33:53.305Z,10.34
2022-12-31T14:34:53.304Z,9.27
2022-12-31T14:35:53.243Z,10.21
2022-12-31T14:36:53.141Z,9.80
2022-12-31T14:37:53.119Z,9.81
2022-12-31T14:38:53.030Z,9.00
2022-12-31T14:39:53.028Z,9.79
2022-12-31T14:40:52.966Z,9.60
2022-12-31T14:41:52.907Z,10.15
2022-12-31T14:42:53.040Z,10.21
2022-12-31T14:43:52.872Z,9.83
2022-12-31T14:44:52.876Z,10.62
2022-12-31T14:45:52.873Z,10.66
2022-12-31T14:46:52.731Z,10.45
2022-12-31T14:47:52.723Z,10.96
2022-12-31T14:48:52.657Z,12.00
2022-12-31T14:49:52.656Z,10.59
2022-12-31T14:50:52.632Z,10.00
2022-12-31T14:51:52.697Z,10.29
2022-12-31T14:52:52.666Z,10.33
2022-12-31T14:53:52.512Z,10.56
2022-12-31T14:54:52.548Z,8.65
2022-12-31T14:55:52.457Z,9.92
2022-12-31T14:56:52.486Z,8.72
2022-12-31T14:58:26.599Z,9.03
2022-12-31T14:58:52.327Z,8.74
2022-12-31T14:59:52.317Z,8.22
2022-12-31T15:00:52.362Z,8.11
2022-12-31T15:01:52.363Z,8.27
2022-12-31T15:02:52.289Z,8.82
2022-12-31T15:03:52.290Z,9.98
2022-12-31T15:04:52.170Z,9.12
2022-12-31T15:05:52.175Z,9.12
2022-12-31T15:06:52.131Z,9.74
2022-12-31T15:07:52.118Z,11.22
2022-12-31T15:08:52.203Z,10.08
2022-12-31T15:09:52.036Z,10.44
2022-12-31T15:10:52.015Z,9.49
2022-12-31T15:11:52.004Z,9.91
2022-12-31T15:12:51.966Z,9.69
2022-12-31T15:13:51.920Z,10.61
2022-12-31T15:14:51.933Z,10.37
2022-12-31T15:15:51.867Z,10.08
2022-12-31T15:16:51.969Z,9.83
2022-12-31T15:17:51.833Z,9.95
2022-12-31T15:18:51.827Z,10.03
2022-12-31T15:19:51.771Z,9.77
2022-12-31T15:20:51.871Z,9.47
2022-12-31T15:21:51.726Z,9.65
2022-12-31T15:22:51.747Z,8.16
2022-12-31T15:23:51.699Z,7.94
2022-12-31T15:24:51.738Z,9.49
2022-12-31T15:25:51.741Z,8.06
2022-12-31T15:26:51.732Z,8.59
2022-12-31T15:27:51.739Z,8.71
2022-12-31T15:28:51.755Z,8.76
2022-12-31T15:29:51.647Z,8.07
2022-12-31T15:30:51.647Z,8.86
2022-12-31T15:31:51.615Z,8.52
2022-12-31T15:32:51.518Z,8.38
2022-12-31T15:33:51.508Z,8.06
2022-12-31T15:34:51.542Z,7.61
2022-12-31T15:35:51.470Z,7.20
2022-12-31T15:36:51.559Z,8.35
2022-12-31T15:37:51.475Z,8.52
2022-12-31T15:38:51.386Z,8.46
2022-12-31T15:39:51.366Z,8.28
2022-12-31T15:40:51.319Z,8.31
2022-12-31T15:42:35.562Z,7.85
2022-12-31T15:42:51.302Z,7.86
2022-12-31T15:43:51.259Z,8.40
2022-12-31T15:44:51.207Z,8.24
2022-12-31T15:45:51.207Z,8.02
2022-12-31T15:46:51.401Z,10.21
2022-12-31T15:47:51.113Z,9.20
2022-12-31T15:48:52.628Z,9.22
2022-12-31T15:49:51.110Z,10.18
2022-12-31T15:50:51.056Z,11.84
2022-12-31T15:51:51.007Z,11.38
2022-12-31T15:52:51.000Z,12.27
2022-12-31T15:53:50.949Z,11.13
2022-12-31T15:54:50.987Z,11.96
2022-12-31T15:55:50.934Z,12.01
2022-12-31T15:56:50.887Z,9.51
2022-12-31T15:57:50.867Z,8.63
2022-12-31T15:58:50.849Z,7.39
2022-12-31T15:59:50.821Z,6.99
2022-12-31T16:00:50.781Z,7.31
2022-12-31T16:01:50.809Z,7.12
2022-12-31T16:02:50.810Z,6.25
2022-12-31T16:03:50.672Z,7.15
2022-12-31T16:04:51.324Z,6.89
2022-12-31T16:05:50.644Z,7.18
2022-12-31T16:06:51.318Z,7.21
2022-12-31T16:07:50.584Z,6.42
2022-12-31T16:08:50.532Z,7.10
2022-12-31T16:09:50.484Z,7.46
2022-12-31T16:10:50.522Z,8.28
2022-12-31T16:11:50.399Z,7.55
2022-12-31T16:12:50.447Z,8.20
2022-12-31T16:13:50.438Z,8.83
2022-12-31T16:14:50.390Z,8.36
2022-12-31T16:15:50.405Z,10.45
2022-12-31T16:16:50.294Z,13.64
2022-12-31T16:17:50.464Z,10.23
2022-12-31T16:18:50.218Z,9.84
2022-12-31T16:19:50.216Z,10.27
2022-12-31T16:20:50.443Z,10.50
2022-12-31T16:21:50.164Z,11.27
2022-12-31T16:22:50.153Z,10.20
2022-12-31T16:23:50.150Z,9.65
2022-12-31T16:25:28.210Z,9.89
2022-12-31T16:25:50.131Z,10.02
2022-12-31T16:26:50.325Z,10.78
2022-12-31T16:27:50.111Z,11.12
2022-12-31T16:28:50.083Z,10.99
2022-12-31T16:29:55.723Z,11.28
2022-12-31T16:30:50.115Z,10.33
2022-12-31T16:31:50.044Z,9.88
2022-12-31T16:32:50.112Z,10.35
2022-12-31T16:33:50.079Z,10.32
2022-12-31T16:34:50.173Z,11.93
2022-12-31T16:35:50.101Z,11.29
2022-12-31T16:36:50.198Z,11.15
2022-12-31T16:37:50.260Z,11.45
2022-12-31T16:38:49.930Z,11.65
2022-12-31T16:39:49.950Z,11.26
2022-12-31T16:40:50.031Z,11.56
2022-12-31T16:41:50.024Z,11.31
2022-12-31T16:42:49.959Z,10.67
2022-12-31T16:43:49.891Z,12.20
2022-12-31T16:44:49.759Z,13.03
2022-12-31T16:45:49.843Z,14.32
2022-12-31T16:46:49.804Z,14.32
2022-12-31T16:47:49.725Z,13.94
2022-12-31T16:48:49.751Z,13.25
2022-12-31T16:49:49.830Z,13.23
2022-12-31T16:50:49.594Z,12.38
2022-12-31T16:51:49.577Z,12.12
2022-12-31T16:52:49.727Z,11.53
2022-12-31T16:53:49.544Z,11.39
2022-12-31T16:54:49.560Z,10.63
2022-12-31T16:55:49.658Z,11.45
2022-12-31T16:56:49.651Z,11.01
2022-12-31T16:57:49.589Z,11.62
2022-12-31T16:58:49.548Z,12.01
2022-12-31T16:59:49.463Z,11.89
2022-12-31T17:00:49.495Z,12.51
2022-12-31T17:01:49.620Z,11.72
2022-12-31T17:02:49.621Z,12.78
2022-12-31T17:03:49.517Z,11.80
2022-12-31T17:04:55.355Z,11.87
2022-12-31T17:05:49.478Z,13.70
2022-12-31T17:06:49.411Z,16.41
2022-12-31T17:07:49.368Z,15.84
2022-12-31T17:08:49.390Z,16.44
2022-12-31T17:09:49.344Z,16.79
2022-12-31T17:10:49.404Z,16.55
2022-12-31T17:11:49.389Z,18.48
2022-12-31T17:13:49.430Z,17.68
2022-12-31T17:14:49.400Z,18.09
2022-12-31T17:15:49.372Z,19.10
2022-12-31T17:16:49.254Z,19.02
2022-12-31T17:17:49.219Z,18.24
2022-12-31T17:18:49.260Z,18.42
2022-12-31T17:19:49.203Z,18.71
2022-12-31T17:20:49.168Z,18.35
2022-12-31T17:21:49.195Z,20.55
2022-12-31T17:22:49.159Z,24.51
2022-12-31T17:23:49.082Z,40.29
2022-12-31T17:24:49.170Z,36.05
2022-12-31T17:25:49.133Z,41.00
2022-12-31T17:26:49.049Z,46.03
2022-12-31T17:27:49.011Z,46.52
2022-12-31T17:28:48.985Z,44.67
2022-12-31T17:29:49.022Z,25.33
2022-12-31T17:30:49.007Z,20.43
2022-12-31T17:31:48.962Z,18.03
2022-12-31T17:32:48.901Z,17.07
2022-12-31T17:33:49.030Z,16.51
2022-12-31T17:34:48.936Z,14.58
2022-12-31T17:35:48.915Z,14.52
2022-12-31T17:36:48.934Z,14.40
2022-12-31T17:37:48.936Z,13.97
2022-12-31T17:38:48.875Z,15.22
2022-12-31T17:39:48.859Z,14.79
2022-12-31T17:40:51.557Z,16.67
2022-12-31T17:41:48.860Z,16.35
2022-12-31T17:42:48.811Z,16.45
2022-12-31T17:43:48.794Z,18.70
2022-12-31T17:44:48.926Z,20.82
2022-12-31T17:45:48.810Z,21.16
2022-12-31T17:46:48.795Z,20.82
2022-12-31T17:47:48.731Z,19.71
2022-12-31T17:48:48.840Z,19.66
2022-12-31T17:49:48.704Z,21.81
2022-12-31T17:50:48.690Z,18.72
2022-12-31T17:51:48.733Z,17.94
2022-12-31T17:52:48.669Z,18.87
2022-12-31T17:53:48.698Z,17.48
2022-12-31T17:54:48.642Z,14.44
2022-12-31T17:55:48.653Z,14.01
2022-12-31T17:56:48.895Z,13.49
2022-12-31T17:57:48.591Z,12.82
2022-12-31T17:58:48.640Z,13.57
2022-12-31T17:59:48.618Z,14.65
2022-12-31T18:00:48.601Z,15.14
2022-12-31T18:01:48.739Z,16.02
2022-12-31T18:02:48.763Z,14.71
2022-12-31T18:03:48.601Z,16.00
2022-12-31T18:04:48.510Z,15.58
2022-12-31T18:05:48.520Z,15.63
2022-12-31T18:06:48.547Z,15.92
2022-12-31T18:07:48.478Z,16.98
2022-12-31T18:08:48.466Z,17.18
2022-12-31T18:09:48.573Z,16.22
2022-12-31T18:10:48.440Z,16.16
2022-12-31T18:11:48.435Z,13.95
2022-12-31T18:12:48.433Z,13.49
2022-12-31T18:13:48.481Z,14.35
2022-12-31T18:14:48.462Z,14.19
2022-12-31T18:15:48.514Z,15.82
2022-12-31T18:16:48.491Z,17.34
2022-12-31T18:17:48.396Z,15.86
2022-12-31T18:18:48.380Z,17.73
2022-12-31T18:20:04.784Z,17.48
2022-12-31T18:20:48.353Z,18.24
2022-12-31T18:21:48.350Z,19.12
2022-12-31T18:22:48.276Z,20.75
2022-12-31T18:23:48.305Z,20.01
2022-12-31T18:24:48.412Z,17.84
2022-12-31T18:25:48.320Z,17.20
2022-12-31T18:26:48.239Z,18.61
2022-12-31T18:27:48.270Z,18.79
2022-12-31T18:28:48.185Z,17.87
2022-12-31T18:29:48.150Z,18.74
2022-12-31T18:30:48.209Z,17.30
2022-12-31T18:31:48.190Z,18.48
2022-12-31T18:32:48.141Z,18.05
2022-12-31T18:33:48.170Z,16.88
2022-12-31T18:34:48.201Z,17.74
2022-12-31T18:36:08.112Z,16.72
2022-12-31T18:36:48.157Z,17.50
2022-12-31T18:37:48.076Z,17.57
2022-12-31T18:38:48.131Z,18.16
2022-12-31T18:39:48.119Z,17.61
2022-12-31T18:40:48.065Z,16.53
2022-12-31T18:41:47.990Z,18.85
2022-12-31T18:42:48.024Z,22.31
2022-12-31T18:43:47.949Z,23.76
2022-12-31T18:44:47.922Z,23.43
2022-12-31T18:45:48.016Z,21.18
2022-12-31T18:46:47.972Z,22.68
2022-12-31T18:47:47.944Z,24.45
2022-12-31T18:48:48.005Z,23.21
2022-12-31T18:49:48.887Z,25.82
2022-12-31T18:50:47.912Z,26.95
2022-12-31T18:51:47.966Z,26.52
2022-12-31T18:52:47.874Z,28.34
2022-12-31T18:53:47.896Z,28.30
2022-12-31T18:54:48.052Z,29.00
2022-12-31T18:55:47.921Z,29.03
2022-12-31T18:56:52.525Z,28.98
2022-12-31T18:57:47.855Z,29.14
2022-12-31T18:58:47.899Z,28.53
2022-12-31T18:59:47.829Z,29.59
2022-12-31T19:00:48.067Z,25.91
2022-12-31T19:01:47.971Z,28.45
2022-12-31T19:02:47.838Z,27.94
2022-12-31T19:03:47.874Z,27.23
2022-12-31T19:04:47.810Z,25.44
2022-12-31T19:05:47.784Z,26.26
2022-12-31T19:06:47.814Z,25.59
2022-12-31T19:07:47.792Z,24.19
2022-12-31T19:08:47.890Z,24.17
2022-12-31T19:09:50.205Z,26.42
2022-12-31T19:10:47.846Z,23.58
2022-12-31T19:11:47.822Z,25.36
2022-12-31T19:12:47.782Z,24.08
2022-12-31T19:13:47.859Z,21.65
2022-12-31T19:14:47.879Z,22.32
2022-12-31T19:15:47.781Z,19.33
2022-12-31T19:16:47.785Z,17.81
2022-12-31T19:17:47.775Z,16.78
2022-12-31T19:18:47.740Z,19.05
2022-12-31T19:19:47.706Z,19.51
2022-12-31T19:20:47.726Z,19.21
2022-12-31T19:21:47.845Z,17.81
2022-12-31T19:22:47.730Z,16.41
2022-12-31T19:23:47.741Z,17.49
2022-12-31T19:24:47.717Z,17.57
2022-12-31T19:25:47.764Z,17.38
2022-12-31T19:26:47.802Z,17.57
2022-12-31T19:27:47.711Z,17.23
2022-12-31T19:28:47.780Z,16.04
2022-12-31T19:29:47.694Z,16.86
2022-12-31T19:30:47.773Z,17.61
2022-12-31T19:31:47.863Z,17.61
2022-12-31T19:32:47.755Z,17.47
2022-12-31T19:33:47.836Z,17.73
2022-12-31T19:34:47.701Z,18.27
2022-12-31T19:35:47.679Z,18.45
2022-12-31T19:36:47.637Z,18.02
2022-12-31T19:37:47.656Z,17.12
2022-12-31T19:38:47.664Z,17.17
2022-12-31T19:39:47.652Z,16.86
2022-12-31T19:40:47.657Z,16.16
2022-12-31T19:41:52.907Z,16.93
2022-12-31T19:42:47.675Z,16.59
2022-12-31T19:43:47.648Z,16.29
2022-12-31T19:44:47.695Z,16.91
2022-12-31T19:45:47.648Z,16.71
2022-12-31T19:46:47.600Z,17.42
2022-12-31T19:47:47.660Z,16.66
2022-12-31T19:48:47.641Z,17.38
2022-12-31T19:49:47.637Z,16.56
2022-12-31T19:50:47.594Z,18.12
2022-12-31T19:51:47.744Z,17.61
2022-12-31T19:52:47.646Z,17.95
2022-12-31T19:53:47.654Z,16.11
2022-12-31T19:54:47.602Z,17.18
2022-12-31T19:55:47.534Z,16.53
2022-12-31T19:56:47.566Z,15.27
2022-12-31T19:57:47.613Z,15.04
2022-12-31T19:58:47.576Z,15.61
2022-12-31T19:59:47.545Z,15.84
2022-12-31T20:00:54.579Z,15.91
2022-12-31T20:01:47.643Z,17.08
2022-12-31T20:02:47.813Z,15.97
2022-12-31T20:03:47.453Z,16.24
2022-12-31T20:04:47.449Z,16.28
2022-12-31T20:05:47.424Z,15.79
2022-12-31T20:06:47.453Z,15.46
2022-12-31T20:07:47.401Z,15.57
2022-12-31T20:08:47.362Z,16.57
2022-12-31T20:09:47.477Z,18.04
2022-12-31T20:10:47.396Z,19.09
2022-12-31T20:11:47.392Z,19.45
2022-12-31T20:12:47.386Z,18.76
2022-12-31T20:13:47.321Z,19.21
2022-12-31T20:14:47.307Z,20.79
2022-12-31T20:15:47.291Z,18.67
2022-12-31T20:16:47.360Z,18.71
2022-12-31T20:17:47.309Z,19.54
2022-12-31T20:18:47.315Z,17.50
2022-12-31T20:19:47.263Z,17.08
2022-12-31T20:20:50.403Z,16.40
2022-12-31T20:21:47.323Z,16.44
2022-12-31T20:22:47.271Z,17.55
2022-12-31T20:23:47.256Z,16.37
2022-12-31T20:24:47.197Z,16.49
2022-12-31T20:25:47.166Z,16.07
2022-12-31T20:26:47.332Z,15.94
2022-12-31T20:27:47.190Z,16.67
2022-12-31T20:28:47.134Z,16.91
2022-12-31T20:29:47.098Z,16.06
2022-12-31T20:30:47.164Z,15.57
2022-12-31T20:31:47.097Z,15.52
2022-12-31T20:32:47.050Z,15.00
2022-12-31T20:33:47.107Z,15.00